Time;durP1;ratioP1;P1;durP2;ratioP2;P2;SDS_P1;SDS_P2;PMS_P1;PMS_P2;Temp;Humidity;BMP_temperature;BMP_pressure;BME280_temperature;BME280_humidity;BME280_pressure;Samples;Min_cycle;Max_cycle;Signal;HPM_P1;HPM_P2
2022/10/26 00:01:09;;;;;;;7.85;7.10;;;;;;;21.64;68.16;101580.50;5117260;28;20043;-87
2022/10/26 00:03:37;;;;;;;6.80;6.10;;;;;;;21.63;68.25;101568.03;5118150;28;20416;-86
2022/10/26 00:06:10;;;;;;;7.45;6.68;;;;;;;21.63;68.10;101567.13;5117886;28;20470;-87
2022/10/26 00:08:38;;;;;;;8.77;7.50;;;;;;;21.64;67.87;101567.03;5117435;28;20075;-86
2022/10/26 00:11:06;;;;;;;11.23;7.70;;;;;;;21.61;68.16;101572.66;5117586;28;20051;-86
2022/10/26 00:13:34;;;;;;;7.90;7.10;;;;;;;21.62;68.04;101577.06;5116698;28;20391;-86
2022/10/26 00:16:08;;;;;;;10.63;6.95;;;;;;;21.62;68.00;101574.38;5118039;28;20467;-87
2022/10/26 00:18:36;;;;;;;6.95;6.28;;;;;;;21.62;68.00;101579.75;5117058;28;20051;-87
2022/10/26 00:21:04;;;;;;;13.48;7.43;;;;;;;21.61;67.98;101583.44;5117725;28;20044;-86
2022/10/26 00:23:32;;;;;;;8.80;7.53;;;;;;;21.61;67.98;101580.75;5098500;28;20052;-85
2022/10/26 00:25:59;;;;;;;9.10;6.72;;;;;;;21.61;67.93;101593.38;5116819;28;20047;-85
2022/10/26 00:28:27;;;;;;;8.23;6.43;;;;;;;21.60;68.02;101600.59;5097973;28;20487;-85
2022/10/26 00:30:54;;;;;;;12.90;7.82;;;;;;;21.62;67.89;101608.53;5097821;28;20062;-85
2022/10/26 00:33:21;;;;;;;8.48;7.03;;;;;;;21.61;67.83;101598.75;5116563;28;20047;-86
2022/10/26 00:35:53;;;;;;;7.57;6.78;;;;;;;21.60;67.83;101597.91;5116787;28;20047;-86
2022/10/26 00:38:20;;;;;;;8.32;7.50;;;;;;;21.61;67.70;101593.38;5117403;28;20047;-88
2022/10/26 00:40:48;;;;;;;8.15;7.20;;;;;;;21.60;67.76;101597.06;5097662;28;20054;-88
2022/10/26 00:43:33;;;;;;;7.72;6.80;;;;;;;21.60;67.78;101594.38;5116085;28;20054;-88
2022/10/26 00:46:03;;;;;;;8.40;7.25;;;;;;;21.61;67.64;101593.38;5116609;28;20054;-86
2022/10/26 00:48:37;;;;;;;10.93;7.00;;;;;;;21.59;67.62;101590.81;5098107;28;20058;-86
2022/10/26 00:51:31;;;;;;;7.22;6.45;;;;;;;21.59;67.71;101585.44;5116913;28;20059;-86
2022/10/26 00:54:02;;;;;;;7.65;6.53;;;;;;;21.58;67.61;101591.78;5116141;28;20043;-86
2022/10/26 00:56:31;;;;;;;7.22;6.38;;;;;;;21.60;67.57;101597.06;5098368;28;20050;-86
2022/10/26 00:59:05;;;;;;;9.98;6.97;;;;;;;21.59;67.43;101590.81;5116629;28;20048;-86
2022/10/26 01:01:35;;;;;;;8.73;6.97;;;;;;;21.58;67.59;101591.78;5099036;28;20043;-87
2022/10/26 01:04:03;;;;;;;11.70;7.22;;;;;;;21.59;67.46;101600.72;5097590;28;20048;-88
2022/10/26 01:06:34;;;;;;;8.13;7.25;;;;;;;21.59;67.43;101596.22;5115920;28;20502;-87
2022/10/26 01:09:02;;;;;;;9.68;6.88;;;;;;;21.58;67.40;101599.84;5116358;28;20051;-87
2022/10/26 01:11:29;;;;;;;13.60;7.53;;;;;;;21.59;67.40;101598.91;5115940;28;20047;-87
2022/10/26 01:13:59;;;;;;;7.47;6.75;;;;;;;21.58;67.45;101597.16;5097338;28;20054;-87
2022/10/26 01:16:32;;;;;;;7.95;7.13;;;;;;;21.59;67.43;101589.94;5116818;28;20140;-88
2022/10/26 01:19:08;;;;;;;8.68;7.40;;;;;;;21.60;67.35;101583.59;5116624;28;20039;-88
2022/10/26 01:21:47;;;;;;;8.40;6.68;;;;;;;21.59;67.24;101579.16;5116546;28;20050;-88
2022/10/26 01:24:56;;;;;;;9.05;7.28;;;;;;;21.57;67.35;101583.84;5116334;28;20044;-86
2022/10/26 01:27:34;;;;;;;7.30;6.60;;;;;;;21.58;67.30;101567.53;5017815;28;20058;-86
2022/10/26 01:30:24;;;;;;;7.80;7.00;;;;;;;21.57;67.24;101568.53;5018078;28;20161;-85
2022/10/26 01:33:06;;;;;;;9.32;7.53;;;;;;;21.58;67.22;101567.53;5017867;28;20054;-86
2022/10/26 01:35:41;;;;;;;9.37;7.00;;;;;;;21.56;67.10;101566.81;5017883;28;20445;-87
2022/10/26 01:38:27;;;;;;;8.60;7.13;;;;;;;21.56;67.15;101561.44;5018077;28;20058;-87
2022/10/26 01:41:07;;;;;;;8.68;6.93;;;;;;;21.58;67.10;101567.53;5017469;28;20050;-85
2022/10/26 01:43:41;;;;;;;10.43;7.75;;;;;;;21.57;67.01;101563.13;5017201;28;20061;-84
2022/10/26 01:46:10;;;;;;;9.07;7.10;;;;;;;21.56;67.16;101558.72;5017703;28;20387;-84
2022/10/26 01:48:40;;;;;;;8.32;7.18;;;;;;;21.57;66.95;101562.28;5017778;28;20050;-84
2022/10/26 01:51:10;;;;;;;9.43;7.53;;;;;;;21.57;66.92;101555.03;5017069;28;20057;-84
2022/10/26 01:53:44;;;;;;;10.02;7.53;;;;;;;21.57;66.94;101555.03;5016615;28;20064;-84
2022/10/26 01:56:20;;;;;;;8.45;7.45;;;;;;;21.56;66.85;101547.09;5001119;28;20050;-84
2022/10/26 01:59:02;;;;;;;8.77;7.97;;;;;;;21.57;66.83;101549.66;5016887;28;20438;-84
2022/10/26 02:01:47;;;;;;;9.35;6.93;;;;;;;21.57;66.64;101554.19;5017168;28;20058;-84
2022/10/26 02:04:33;;;;;;;8.35;7.20;;;;;;;21.56;66.73;101545.25;5075015;28;20483;-84
2022/10/26 02:07:02;;;;;;;9.27;7.43;;;;;;;21.55;66.70;101546.22;5101479;28;20407;-83
2022/10/26 02:10:06;;;;;;;7.78;6.97;;;;;;;21.56;66.58;101542.56;5117988;28;20052;-83
2022/10/26 02:12:39;;;;;;;;;;;;;;;21.55;66.50;101537.28;5119114;28;20044;-84
2022/10/26 02:15:15;;;;;;;7.78;7.03;;;;;;;21.55;66.48;101534.59;5118376;28;19926;-83
2022/10/26 02:18:06;;;;;;;10.60;8.13;;;;;;;21.55;66.33;101529.22;5117953;28;20047;-85
2022/10/26 02:20:39;;;;;;;8.77;7.90;;;;;;;21.55;66.43;101524.66;5118643;28;20039;-85
2022/10/26 02:23:08;;;;;;;;;;;;;;;21.55;66.52;101530.06;5118519;28;20051;-86
2022/10/26 02:25:41;;;;;;;10.18;8.23;;;;;;;21.55;66.38;101530.06;5118930;28;19927;-85
2022/10/26 02:28:12;;;;;;;9.15;7.10;;;;;;;21.54;66.36;101531.06;5118741;28;20052;-86
2022/10/26 02:30:42;;;;;;;10.55;7.60;;;;;;;21.55;66.48;101530.06;5118560;28;20055;-86
2022/10/26 02:33:12;;;;;;;13.23;7.95;;;;;;;21.54;66.30;101527.50;5119035;28;20040;-86
2022/10/26 02:35:42;;;;;;;8.32;7.32;;;;;;;21.54;66.40;101522.97;5117490;28;20051;-86
2022/10/26 02:38:12;;;;;;;9.90;7.68;;;;;;;21.54;66.39;101522.13;5117531;28;20402;-85
2022/10/26 02:40:40;;;;;;;8.77;7.93;;;;;;;21.54;66.28;101522.97;5118428;28;20048;-84
2022/10/26 02:43:13;;;;;;;8.70;7.80;;;;;;;21.53;66.20;101526.66;5099949;28;20387;-84
2022/10/26 02:45:47;;;;;;;8.68;7.75;;;;;;;21.52;66.22;101533.03;5117943;28;20471;-84
2022/10/26 02:48:15;;;;;;;9.18;8.10;;;;;;;21.54;66.18;101530.19;5117787;28;20039;-85
2022/10/26 02:51:10;;;;;;;9.75;7.43;;;;;;;21.54;66.09;101528.34;5117429;28;20036;-84
2022/10/26 02:54:10;;;;;;;7.88;6.80;;;;;;;21.53;66.18;101529.34;5118307;28;20044;-84
2022/10/26 02:56:54;;;;;;;10.25;8.18;;;;;;;21.53;66.14;101532.03;5117983;28;20048;-85
2022/10/26 02:59:24;;;;;;;10.18;8.18;;;;;;;21.54;66.04;101527.50;5117820;28;20372;-84
2022/10/26 03:01:52;;;;;;;10.02;7.90;;;;;;;21.51;66.11;101527.75;5118577;28;20043;-85
2022/10/26 03:04:26;;;;;;;9.07;7.68;;;;;;;21.53;66.13;101534.72;5117717;28;20066;-85
2022/10/26 03:06:54;;;;;;;9.18;8.10;;;;;;;21.54;66.08;101538.28;5117468;28;20047;-84
2022/10/26 03:09:21;;;;;;;10.38;8.30;;;;;;;21.54;65.85;101532.88;5075262;28;1212013;-85
2022/10/26 03:11:52;;;;;;;14.45;8.38;;;;;;;21.53;65.97;101531.19;5101164;28;20044;-84
2022/10/26 03:14:19;;;;;;;10.20;8.13;;;;;;;21.53;66.00;101537.44;5099085;28;20075;-88
2022/10/26 03:16:47;;;;;;;8.98;8.07;;;;;;;21.51;66.00;101531.31;5099665;28;20063;-86
2022/10/26 03:19:14;;;;;;;8.30;7.45;;;;;;;21.53;65.86;101540.13;5119309;28;20050;-85
2022/10/26 03:21:41;;;;;;;8.85;7.38;;;;;;;21.51;65.88;101525.91;5118242;28;20039;-85
2022/10/26 03:24:09;;;;;;;8.80;7.13;;;;;;;21.52;65.90;101524.09;5117886;28;20043;-85
2022/10/26 03:26:36;;;;;;;9.65;8.57;;;;;;;21.54;65.87;101530.19;5118677;28;20047;-86
2022/10/26 03:29:04;;;;;;;8.93;8.02;;;;;;;21.53;65.75;101533.88;5118034;28;20039;-87
2022/10/26 03:31:31;;;;;;;8.63;7.03;;;;;;;21.51;65.79;101530.44;5118552;28;20049;-86
2022/10/26 03:33:58;;;;;;;8.20;7.40;;;;;;;21.53;65.80;101539.28;5117671;28;20040;-87
2022/10/26 03:36:25;;;;;;;8.75;7.18;;;;;;;21.52;65.79;101538.41;5118001;28;20487;-87
2022/10/26 03:38:53;;;;;;;8.32;7.32;;;;;;;21.52;65.77;101545.66;5118530;28;20048;-87
2022/10/26 03:41:20;;;;;;;9.88;8.07;;;;;;;21.51;65.79;101547.47;5117986;28;20054;-87
2022/10/26 03:43:47;;;;;;;8.63;7.82;;;;;;;21.53;65.66;101542.81;5117753;28;20046;-87
2022/10/26 03:46:15;;;;;;;8.13;7.07;;;;;;;21.51;65.67;101547.47;5117865;28;20044;-86
2022/10/26 03:48:42;;;;;;;9.38;8.15;;;;;;;21.50;65.71;101543.06;5097686;28;20056;-86
2022/10/26 03:51:09;;;;;;;8.55;7.20;;;;;;;21.51;65.64;101535.84;5117314;28;20047;-86
2022/10/26 03:53:36;;;;;;;9.73;8.00;;;;;;;21.50;65.67;101543.06;5099672;28;20052;-86
2022/10/26 03:56:04;;;;;;;9.07;7.20;;;;;;;21.50;65.58;101543.06;5098785;28;20051;-86
2022/10/26 03:58:31;;;;;;;8.57;7.63;;;;;;;21.50;65.62;101545.75;5117850;28;20040;-86
2022/10/26 04:00:59;;;;;;;9.98;7.68;;;;;;;21.51;65.43;101552.00;5119292;28;20047;-85
2022/10/26 04:03:26;;;;;;;9.40;8.18;;;;;;;21.49;65.54;101541.38;5100703;28;20042;-84
2022/10/26 04:05:53;;;;;;;10.68;8.30;;;;;;;21.49;65.48;101533.28;5098929;28;20050;-84
2022/10/26 04:08:21;;;;;;;6.90;6.30;;;;;;;21.50;65.40;101526.91;5117593;28;20055;-86
2022/10/26 04:10:48;;;;;;;10.00;7.78;;;;;;;21.50;65.42;101526.06;5117841;28;20048;-85
2022/10/26 04:13:15;;;;;;;10.63;7.47;;;;;;;21.50;65.35;101521.50;5117116;28;20399;-86
2022/10/26 04:15:42;;;;;;;9.95;8.25;;;;;;;21.49;65.33;101519.81;5117088;28;20044;-85
2022/10/26 04:18:13;;;;;;;8.55;7.68;;;;;;;21.49;65.27;101514.44;5117394;28;20399;-85
2022/10/26 04:20:41;;;;;;;10.38;8.23;;;;;;;21.48;65.29;101516.28;5117492;28;20392;-85
2022/10/26 04:23:16;;;;;;;9.15;8.18;;;;;;;21.47;65.23;101517.25;5117318;28;20475;-84
2022/10/26 04:25:44;;;;;;;10.20;8.10;;;;;;;21.48;65.27;101529.75;5117055;28;20040;-85
2022/10/26 04:28:13;;;;;;;8.32;7.32;;;;;;;21.48;65.22;101534.28;5117355;28;20044;-85
2022/10/26 04:30:40;;;;;;;9.95;7.10;;;;;;;21.48;65.16;101536.97;5098243;28;20056;-85
2022/10/26 04:33:08;;;;;;;8.32;7.53;;;;;;;21.47;65.17;101527.16;5116414;28;20066;-86
2022/10/26 04:35:35;;;;;;;8.40;7.53;;;;;;;21.49;65.27;101538.66;5097664;28;20067;-86
2022/10/26 04:38:05;;;;;;;11.63;8.50;;;;;;;21.48;65.13;101539.66;5116579;28;20051;-85
2022/10/26 04:40:34;;;;;;;12.23;8.30;;;;;;;21.48;65.15;101531.59;5098451;28;20051;-85
2022/10/26 04:43:01;;;;;;;9.00;7.53;;;;;;;21.48;65.13;101537.81;5116405;28;20043;-84
2022/10/26 04:45:32;;;;;;;9.30;7.75;;;;;;;21.47;65.06;101538.81;5116865;28;20043;-85
2022/10/26 04:48:02;;;;;;;9.30;7.25;;;;;;;21.47;65.01;101537.94;5080792;28;20056;-85
2022/10/26 04:50:29;;;;;;;9.57;8.55;;;;;;;21.47;65.02;101546.91;5117005;28;20406;-84
2022/10/26 04:52:57;;;;;;;9.32;8.38;;;;;;;21.46;65.03;101539.78;5116464;28;20050;-86
2022/10/26 04:55:24;;;;;;;10.32;7.95;;;;;;;21.47;64.97;101549.59;5116282;28;20378;-89
2022/10/26 04:57:52;;;;;;;9.82;7.55;;;;;;;21.48;65.00;101555.81;5116884;28;20058;-85
2022/10/26 05:00:25;;;;;;;9.93;7.53;;;;;;;21.47;64.99;101551.41;5097469;28;20051;-86
2022/10/26 05:03:01;;;;;;;9.63;8.43;;;;;;;21.46;64.98;101547.84;5116971;28;20043;-85
2022/10/26 05:05:30;;;;;;;8.50;7.60;;;;;;;21.46;64.94;101536.22;5117065;28;20051;-86
2022/10/26 05:07:58;;;;;;;8.57;7.55;;;;;;;21.47;64.89;101537.94;5116956;28;20490;-87
2022/10/26 05:10:25;;;;;;;9.32;7.70;;;;;;;21.46;64.99;101536.22;5117024;28;20050;-86
2022/10/26 05:12:54;;;;;;;8.48;7.68;;;;;;;21.45;64.94;101538.06;5116665;28;20502;-86
2022/10/26 05:15:22;;;;;;;8.40;7.60;;;;;;;21.46;64.96;101534.38;5097816;28;20059;-84
2022/10/26 05:18:01;;;;;;;10.63;8.30;;;;;;;21.46;64.85;101547.00;5097483;28;20051;-85
2022/10/26 05:20:31;;;;;;;8.38;7.43;;;;;;;21.46;64.94;101549.69;5116858;28;20043;-85
2022/10/26 05:23:01;;;;;;;10.35;8.18;;;;;;;21.47;64.96;101548.69;5116440;28;20051;-85
2022/10/26 05:25:31;;;;;;;10.32;8.13;;;;;;;21.46;64.87;101549.69;5116253;28;20047;-87
2022/10/26 05:27:59;;;;;;;8.43;7.63;;;;;;;21.46;64.88;101555.09;5097967;28;20052;-87
2022/10/26 05:30:27;;;;;;;10.85;8.02;;;;;;;21.46;64.92;101557.78;5115818;28;20051;-87
2022/10/26 05:33:01;;;;;;;8.35;6.90;;;;;;;21.45;64.78;101553.38;5115551;28;20479;-85
2022/10/26 05:35:28;;;;;;;;;;;;;;;21.45;64.88;101553.38;5097937;28;20391;-83
2022/10/26 05:37:55;;;;;;;8.82;7.97;;;;;;;21.45;64.79;101548.00;5098420;28;20279;-84
2022/10/26 05:40:22;;;;;;;9.65;8.00;;;;;;;21.45;64.85;101543.47;5116245;28;20407;-83
2022/10/26 05:42:50;;;;;;;10.35;8.13;;;;;;;21.44;64.79;101552.53;5115589;28;20502;-85
2022/10/26 05:45:18;;;;;;;9.93;7.25;;;;;;;21.44;64.80;101551.69;5115473;28;20116;-85
2022/10/26 05:47:45;;;;;;;9.65;7.63;;;;;;;21.44;64.73;101559.75;5098022;28;20047;-84
2022/10/26 05:50:13;;;;;;;8.60;7.53;;;;;;;21.44;64.87;101554.38;5115830;28;20047;-84
2022/10/26 05:52:42;;;;;;;9.88;7.60;;;;;;;21.44;64.88;101554.38;5096716;28;20055;-85
2022/10/26 05:55:16;;;;;;;9.18;8.18;;;;;;;21.44;64.83;101554.38;5115590;28;20051;-86
2022/10/26 05:57:43;;;;;;;10.18;7.82;;;;;;;21.45;64.98;101561.47;5097374;28;20048;-84
2022/10/26 06:00:17;;;;;;;8.15;7.13;;;;;;;21.44;64.99;101567.84;5116198;28;20047;-84
2022/10/26 06:03:12;;;;;;;9.65;7.43;;;;;;;21.44;64.95;101575.91;5115661;28;20044;-83
2022/10/26 06:05:54;;;;;;;9.68;7.30;;;;;;;21.44;64.94;101578.63;5096993;28;20059;-83
2022/10/26 06:08:23;;;;;;;8.13;6.75;;;;;;;21.44;64.89;101581.31;5115475;28;20383;-83
2022/10/26 06:10:52;;;;;;;9.82;7.60;;;;;;;21.44;64.81;101584.00;5116375;28;20065;-84
2022/10/26 06:13:20;;;;;;;12.57;7.85;;;;;;;21.44;64.87;101578.63;5100628;28;20066;-85
2022/10/26 06:16:15;;;;;;;9.75;7.90;;;;;;;21.43;64.79;101591.22;5120324;28;20040;-87
2022/10/26 06:19:06;;;;;;;10.95;7.93;;;;;;;21.44;64.78;101597.47;5101422;28;20062;-88
2022/10/26 06:21:47;;;;;;;9.35;7.57;;;;;;;21.43;64.77;101607.41;5100942;28;20498;-84
2022/10/26 06:24:14;;;;;;;8.95;7.68;;;;;;;21.44;64.75;101609.09;5119955;28;20058;-85
2022/10/26 06:26:50;;;;;;;8.60;7.68;;;;;;;21.45;64.75;101618.03;5119476;28;20044;-85
2022/10/26 06:29:35;;;;;;;9.32;7.00;;;;;;;21.44;64.78;101619.03;5100222;28;20047;-83
2022/10/26 06:32:03;;;;;;;8.65;7.68;;;;;;;21.44;64.83;101619.03;5117727;28;20048;-84
2022/10/26 06:34:36;;;;;;;8.70;7.63;;;;;;;21.44;64.70;101614.50;5119872;28;20070;-84
2022/10/26 06:37:03;;;;;;;9.15;7.45;;;;;;;21.43;64.70;101618.19;5119039;28;20044;-87
2022/10/26 06:39:36;;;;;;;8.50;7.10;;;;;;;21.44;64.70;101629.81;5100785;28;20043;-87
2022/10/26 06:42:04;;;;;;;9.60;6.97;;;;;;;21.44;64.55;101644.13;5119530;28;20054;-83
2022/10/26 06:44:32;;;;;;;10.65;7.40;;;;;;;21.43;64.57;101646.91;5119507;28;20051;-85
2022/10/26 06:47:12;;;;;;;11.68;8.10;;;;;;;21.44;64.62;101646.81;5118971;28;20484;-80
2022/10/26 06:49:52;;;;;;;10.32;7.68;;;;;;;21.44;64.56;101649.50;5118924;28;20047;-84
2022/10/26 06:52:24;;;;;;;10.57;7.18;;;;;;;21.44;64.57;101646.81;5119569;28;20051;-84
2022/10/26 06:54:53;;;;;;;8.82;7.57;;;;;;;21.46;64.48;101652.06;5119512;28;20062;-88
2022/10/26 06:57:24;;;;;;;11.38;7.60;;;;;;;21.44;64.38;101645.97;5118319;28;20055;-84
2022/10/26 06:59:55;;;;;;;9.50;7.38;;;;;;;21.45;64.38;101644.97;5099799;28;20090;-85
2022/10/26 07:02:22;;;;;;;10.43;7.25;;;;;;;21.46;64.68;101650.22;5117984;28;20039;-88
2022/10/26 07:04:50;;;;;;;9.48;7.60;;;;;;;21.45;64.69;101644.97;5117126;28;20047;-83
2022/10/26 07:07:23;;;;;;;8.55;7.28;;;;;;;21.45;64.63;101650.38;5121271;28;20031;-93
2022/10/26 07:09:51;;;;;;;11.27;8.20;;;;;;;21.47;64.72;101656.47;5121570;28;20062;-93
2022/10/26 07:12:19;;;;;;;12.88;8.55;;;;;;;21.48;64.36;101674.38;5135653;27;20044;-85
2022/10/26 07:14:46;;;;;;;9.30;7.63;;;;;;;21.48;64.23;101669.81;5118656;28;20051;-83
2022/10/26 07:17:15;;;;;;;11.15;8.30;;;;;;;21.48;63.55;101672.53;5116798;28;20050;-81
2022/10/26 07:19:43;;;;;;;15.25;9.45;;;;;;;21.48;62.81;101685.13;5117945;28;20055;-84
2022/10/26 07:22:11;;;;;;;17.90;10.40;;;;;;;21.47;62.41;101675.31;5116200;28;20048;-83
2022/10/26 07:24:39;;;;;;;13.88;9.95;;;;;;;21.47;62.21;101684.28;5107065;28;20380;-92
2022/10/26 07:27:07;;;;;;;11.38;8.70;;;;;;;21.47;61.99;101684.28;5116734;28;20395;-82
2022/10/26 07:29:34;;;;;;;15.68;9.73;;;;;;;21.48;62.50;101690.53;5117348;28;20113;-83
2022/10/26 07:32:02;;;;;;;17.30;10.45;;;;;;;21.48;62.41;101695.91;5117469;28;20048;-83
2022/10/26 07:34:29;;;;;;;13.55;9.90;;;;;;;21.49;61.88;101697.63;5117835;28;20518;-89
2022/10/26 07:36:58;;;;;;;13.20;9.10;;;;;;;21.50;61.75;101714.63;5115876;28;20044;-86
2022/10/26 07:39:26;;;;;;;12.07;8.85;;;;;;;21.50;61.62;101699.31;5117775;28;20371;-89
2022/10/26 07:41:53;;;;;;;14.18;10.40;;;;;;;21.50;61.78;101702.00;5117522;28;20047;-91
2022/10/26 07:44:21;;;;;;;13.73;8.48;;;;;;;21.51;62.14;101694.78;5098451;28;20052;-94
2022/10/26 07:46:48;;;;;;;10.95;8.52;;;;;;;21.52;62.64;101701.91;5099677;28;20055;-88
2022/10/26 07:49:15;;;;;;;11.43;8.20;;;;;;;21.54;62.98;101711.56;5102709;28;20044;-90
2022/10/26 07:51:45;;;;;;;13.80;8.13;;;;;;;21.55;63.12;101720.50;5115352;28;20052;-88
2022/10/26 07:54:13;;;;;;;9.43;7.50;;;;;;;21.56;63.50;101716.84;5117478;28;20058;-90
2022/10/26 07:56:40;;;;;;;11.68;7.72;;;;;;;21.55;63.18;101709.72;5099034;28;20055;-85
2022/10/26 07:59:11;;;;;;;11.52;8.20;;;;;;;21.56;63.32;101709.63;5116952;28;20047;-83
2022/10/26 08:01:38;;;;;;;13.90;8.50;;;;;;;21.57;63.29;101715.84;5099824;28;20502;-92
2022/10/26 08:04:05;;;;;;;11.40;7.70;;;;;;;21.56;63.59;101700.69;5081768;28;20070;-80
2022/10/26 08:06:33;;;;;;;9.60;8.43;;;;;;;21.57;64.04;101692.47;5116683;28;20058;-85
2022/10/26 08:09:00;;;;;;;12.13;7.07;;;;;;;21.58;63.98;101704.94;5117152;28;20058;-86
2022/10/26 08:11:27;;;;;;;12.68;8.02;;;;;;;21.60;64.04;101707.53;5096798;28;20051;-85
2022/10/26 08:13:55;;;;;;;13.05;8.00;;;;;;;21.61;64.03;101706.53;5098263;28;20059;-85
2022/10/26 08:16:23;;;;;;;9.82;7.50;;;;;;;21.61;63.96;101707.41;5097596;28;20051;-79
2022/10/26 08:18:51;;;;;;;14.07;8.07;;;;;;;21.62;64.27;101703.72;5115055;28;20040;-83
2022/10/26 08:21:18;;;;;;;9.57;7.65;;;;;;;21.62;64.08;101703.72;5114896;28;20040;-84
2022/10/26 08:24:01;;;;;;;11.38;7.82;;;;;;;21.64;64.06;101693.69;5116471;28;20054;-85
2022/10/26 08:26:29;;;;;;;10.75;8.23;;;;;;;21.64;64.03;101688.28;5117254;28;20048;-82
2022/10/26 08:28:56;;;;;;;11.05;7.90;;;;;;;21.65;64.02;101690.00;5131159;27;20043;-83
2022/10/26 08:31:24;;;;;;;10.38;7.78;;;;;;;21.66;63.94;101698.94;5116393;28;20422;-91
2022/10/26 08:33:51;;;;;;;10.55;8.35;;;;;;;21.66;63.96;101694.38;5116319;28;20050;-94
2022/10/26 08:36:23;;;;;;;11.70;7.68;;;;;;;21.68;63.82;101689.75;5099727;28;20052;-84
2022/10/26 08:38:51;;;;;;;14.60;8.15;;;;;;;21.70;63.93;101692.31;5116187;28;20054;-82
2022/10/26 08:41:42;;;;;;;9.85;7.95;;;;;;;21.69;63.82;101694.16;5115964;28;20043;-89
2022/10/26 08:44:25;;;;;;;11.02;8.63;;;;;;;21.70;63.89;101687.75;5117786;28;20510;-86
2022/10/26 08:47:15;;;;;;;10.05;8.43;;;;;;;21.71;63.91;101688.63;5098143;28;20051;-89
2022/10/26 08:49:52;;;;;;;8.60;7.18;;;;;;;21.71;63.71;101691.31;5116219;28;20533;-85
2022/10/26 08:52:29;;;;;;;11.30;8.52;;;;;;;21.72;63.57;101693.91;5115654;28;20044;-83
2022/10/26 08:54:59;;;;;;;9.32;8.02;;;;;;;21.72;63.70;101693.06;5115111;28;20051;-87
2022/10/26 08:57:37;;;;;;;12.38;8.32;;;;;;;21.73;63.73;101695.59;5114747;28;20050;-87
2022/10/26 09:00:26;;;;;;;10.18;7.35;;;;;;;21.75;63.76;101698.16;5116646;28;20055;-86
2022/10/26 09:02:53;;;;;;;8.95;8.05;;;;;;;21.75;63.65;101697.31;5115544;28;20048;-84
2022/10/26 09:05:27;;;;;;;9.45;7.72;;;;;;;21.75;63.63;101700.00;5097164;28;20047;-90
2022/10/26 09:08:05;;;;;;;12.32;7.70;;;;;;;21.76;63.94;101705.28;5097547;28;20399;-87
2022/10/26 09:11:23;;;;;;;19.17;8.68;;;;;;;21.76;63.85;101694.50;5114828;28;20058;-81
2022/10/26 09:14:18;;;;;;;13.32;10.05;;;;;;;21.78;63.69;101694.38;5073180;28;20502;-82
2022/10/26 09:17:07;;;;;;;11.98;8.65;;;;;;;21.77;63.48;101698.91;5097765;28;20506;-88
2022/10/26 09:19:34;;;;;;;14.93;7.85;;;;;;;21.79;63.46;101696.06;5098950;28;20044;-85
2022/10/26 09:22:09;;;;;;;10.70;7.90;;;;;;;21.79;63.58;101690.69;5116213;28;20050;-86
2022/10/26 09:24:52;;;;;;;12.05;7.85;;;;;;;21.80;63.72;101695.13;5114792;28;20058;-84
2022/10/26 09:27:31;;;;;;;13.45;7.28;;;;;;;21.80;63.66;101703.19;5115504;28;20395;-85
2022/10/26 09:30:10;;;;;;;12.20;8.43;;;;;;;21.80;63.65;101695.13;5114471;28;20044;-85
2022/10/26 09:32:43;;;;;;;12.77;8.23;;;;;;;21.80;63.57;101703.19;5096023;28;20050;-81
2022/10/26 09:35:22;;;;;;;12.25;8.38;;;;;;;21.80;63.60;101705.91;5114258;28;20044;-92
2022/10/26 09:38:24;;;;;;;12.85;8.38;;;;;;;21.80;63.44;101709.44;5114916;28;20479;-89
2022/10/26 09:41:26;;;;;;;11.48;8.73;;;;;;;21.81;63.75;101713.84;5098130;28;20060;-85
2022/10/26 09:44:09;;;;;;;17.52;9.40;;;;;;;21.81;63.68;101710.28;5115140;28;20047;-87
2022/10/26 09:46:54;;;;;;;9.45;8.00;;;;;;;21.82;63.57;101714.69;5117814;28;20047;-86
2022/10/26 09:49:30;;;;;;;11.88;8.52;;;;;;;21.83;63.48;101716.41;5117860;28;20479;-82
2022/10/26 09:52:06;;;;;;;11.20;9.15;;;;;;;21.83;63.84;101716.41;5121291;28;20054;-86
2022/10/26 09:54:34;;;;;;;12.45;8.52;;;;;;;21.82;63.76;101714.69;5119594;28;20048;-89
2022/10/26 09:57:03;;;;;;;13.50;8.43;;;;;;;21.83;63.92;101714.56;5119693;28;20044;-87
2022/10/26 09:59:34;;;;;;;14.40;8.52;;;;;;;21.83;63.61;101714.56;5119628;28;20043;-89
2022/10/26 10:02:32;;;;;;;12.57;8.68;;;;;;;21.85;63.56;101711.75;5119715;28;20506;-80
2022/10/26 10:05:00;;;;;;;15.90;9.63;;;;;;;21.84;63.74;101721.69;5120123;28;20050;-83
2022/10/26 10:07:28;;;;;;;12.05;8.13;;;;;;;21.85;63.84;101723.38;5117825;28;20055;-85
2022/10/26 10:10:15;;;;;;;13.45;9.60;;;;;;;21.84;66.13;101718.13;5121274;28;20052;-89
2022/10/26 10:12:45;;;;;;;11.43;8.85;;;;;;;21.84;66.86;101718.13;5126716;28;20055;-89
2022/10/26 10:15:17;;;;;;;12.60;9.00;;;;;;;21.84;67.43;101719.00;5133835;28;20050;-92
2022/10/26 10:17:52;;;;;;;13.55;9.52;;;;;;;21.84;67.84;101715.44;5100927;28;20052;-89
2022/10/26 10:20:29;;;;;;;12.27;9.80;;;;;;;21.85;67.66;101725.22;5118911;28;20399;-84
2022/10/26 10:23:02;;;;;;;12.50;9.20;;;;;;;21.82;67.56;101715.53;5117754;28;20054;-87
2022/10/26 10:25:38;;;;;;;13.95;8.88;;;;;;;21.81;68.02;101718.38;5118466;28;20043;-83
2022/10/26 10:28:24;;;;;;;12.48;9.43;;;;;;;21.82;68.62;101717.38;5117892;28;20369;-82
2022/10/26 10:30:54;;;;;;;14.35;10.07;;;;;;;21.81;68.89;101721.06;5117912;28;20043;-83
2022/10/26 10:33:22;;;;;;;14.25;9.63;;;;;;;21.81;68.71;101718.38;5099399;28;20052;-86
2022/10/26 10:35:51;;;;;;;13.52;8.63;;;;;;;21.79;68.72;101714.94;5116669;28;20384;-80
2022/10/26 10:38:20;;;;;;;9.68;8.68;;;;;;;21.79;68.81;101710.41;5117092;28;20035;-85
2022/10/26 10:40:55;;;;;;;15.20;9.05;;;;;;;21.79;69.04;101712.25;5117899;28;20059;-85
2022/10/26 10:43:23;;;;;;;13.73;9.38;;;;;;;21.78;69.11;101710.53;5120445;28;20398;-84
2022/10/26 10:45:54;;;;;;;12.20;9.35;;;;;;;21.79;69.18;101714.94;5117603;28;20050;-84
2022/10/26 10:48:28;;;;;;;13.63;9.40;;;;;;;21.79;69.52;101714.94;5118820;28;20497;-85
2022/10/26 10:50:59;;;;;;;;;;;;;;;21.78;69.50;101702.44;5119243;28;20055;-87
2022/10/26 10:53:48;;;;;;;13.38;8.82;;;;;;;21.78;69.56;101702.44;5117871;28;19923;-84
2022/10/26 10:56:33;;;;;;;14.20;8.50;;;;;;;21.77;69.80;101700.75;5119483;28;20052;-83
2022/10/26 10:59:35;;;;;;;12.50;8.35;;;;;;;21.77;69.50;101704.28;5118081;28;20039;-95
2022/10/26 11:02:05;;;;;;;9.25;7.53;;;;;;;21.77;69.80;101707.00;5117198;28;20062;-84
2022/10/26 11:04:44;;;;;;;14.85;9.27;;;;;;;21.77;69.97;101693.50;5099159;28;20047;-86
2022/10/26 11:07:14;;;;;;;16.17;8.60;;;;;;;21.77;69.67;101687.28;5118029;28;20464;-81
2022/10/26 11:09:45;;;;;;;10.00;8.07;;;;;;;21.77;69.64;101698.06;5118117;28;20047;-86
2022/10/26 11:12:17;;;;;;;11.48;8.52;;;;;;;21.77;69.08;101692.66;5117790;28;20046;-82
2022/10/26 11:14:51;;;;;;;18.10;8.50;;;;;;;21.77;69.28;101689.97;5117693;28;20058;-94
2022/10/26 11:17:25;;;;;;;13.68;9.20;;;;;;;21.75;69.22;101682.00;5080502;28;20056;-85
2022/10/26 11:20:01;;;;;;;18.60;9.82;;;;;;;21.76;68.39;101690.97;5076674;28;20040;-85
2022/10/26 11:22:37;;;;;;;14.88;9.55;;;;;;;21.76;69.17;101685.56;5076533;28;20059;-85
2022/10/26 11:25:12;;;;;;;15.88;9.65;;;;;;;21.76;69.91;101686.41;5074871;28;20476;-85
2022/10/26 11:27:48;;;;;;;14.88;9.30;;;;;;;21.75;70.27;101684.69;5077258;28;20071;-85
2022/10/26 11:30:21;;;;;;;14.18;9.73;;;;;;;21.75;70.10;101687.38;5077086;28;20044;-85
2022/10/26 11:33:03;;;;;;;15.55;9.70;;;;;;;21.74;70.21;101682.97;5074617;28;20063;-87
2022/10/26 11:35:39;;;;;;;12.50;9.10;;;;;;;21.72;70.37;101677.72;5076663;28;20049;-88
2022/10/26 11:38:16;;;;;;;13.70;8.82;;;;;;;21.72;70.52;101679.56;5077105;28;20048;-92
2022/10/26 11:41:05;;;;;;;15.20;9.85;;;;;;;21.72;70.79;101680.44;5077569;28;20048;-86
2022/10/26 11:43:47;;;;;;;13.88;9.45;;;;;;;21.71;70.44;101680.53;5076636;28;20060;-86
2022/10/26 11:46:37;;;;;;;13.25;9.70;;;;;;;21.69;70.62;101677.97;5076170;28;20048;-85
2022/10/26 11:49:19;;;;;;;13.68;9.27;;;;;;;21.70;70.90;101678.81;5076021;28;20045;-85